Archival Weather

Chicago O'Hare International

Chicago, Illinois (KORD)

Report from: Wednesday, July 19, 2023 4:51 AM CDT
Current time: Monday, July 22, 2024 6:32 AM CDT

Current weather – Weather history – Daily summaries
Weather forecast

Temperature17.8°C (64.0°F)
Dew point12.8°C (55.0°F)
Winds Calm
Visibility10 mi. (16.1 km)
Clouds Few clouds 8,500 ft. (2,591 m)
Few clouds 25,000 ft. (7,620 m)
Altimeter30.02 in.Hg (1017 mB)
Relative humidity73 %
Density altitude436 ft. (133 m)
Sea-level pressure101.6 kPa (1016 mB, 30.01 in.Hg)
Remarks System requires maintenance
Automated weather observing station with precipitation discriminator
Flight conditions Visual Meteorological Conditions
Raw dataKORD 190951Z 00000KT 10SM FEW085 FEW250 18/13 A3002 RMK AO2 SLP162 T01780128 $
An error has occurred. This application may no longer respond until reloaded. Reload 🗙